Time;durP1;ratioP1;P1;durP2;ratioP2;P2;SDS_P1;SDS_P2;PMS_P1;PMS_P2;Temp;Humidity;BMP_temperature;BMP_pressure;BME280_temperature;BME280_humidity;BME280_pressure;Samples;Min_cycle;Max_cycle;Signal;HPM_P1;HPM_P2
2023/06/17 00:00:25;;;;;;;2.55;2.35;;;17.50;99.90;;;;;;5015319;28;20160;-36
2023/06/17 00:02:51;;;;;;;4.00;2.60;;;17.50;99.90;;;;;;5021195;28;20045;-38
2023/06/17 00:05:17;;;;;;;2.40;2.17;;;17.40;99.90;;;;;;5011707;28;20101;-32
2023/06/17 00:07:43;;;;;;;3.80;2.72;;;17.40;99.90;;;;;;5012058;28;20506;-32
2023/06/17 00:10:10;;;;;;;5.07;2.58;;;17.30;99.90;;;;;;5012823;28;20026;-34
2023/06/17 00:12:36;;;;;;;3.03;2.72;;;17.30;99.90;;;;;;5012874;28;20108;-40
2023/06/17 00:15:04;;;;;;;3.45;2.88;;;17.30;99.90;;;;;;5012847;28;20538;-33
2023/06/17 00:17:31;;;;;;;2.78;2.25;;;17.30;99.90;;;;;;5012724;28;20101;-35
2023/06/17 00:20:07;;;;;;;2.63;2.42;;;17.30;99.90;;;;;;5012784;28;20118;-33
2023/06/17 00:22:34;;;;;;;4.20;3.00;;;17.20;99.90;;;;;;5013396;28;20145;-31
2023/06/17 00:25:00;;;;;;;7.22;3.72;;;17.20;99.90;;;;;;5014631;28;20024;-32
2023/06/17 00:27:26;;;;;;;3.83;3.08;;;17.10;99.90;;;;;;5016738;28;20076;-32
2023/06/17 00:29:52;;;;;;;4.68;3.03;;;17.10;99.90;;;;;;5016930;28;20054;-33
2023/06/17 00:32:18;;;;;;;3.15;2.85;;;17.10;99.90;;;;;;5031773;28;20034;-33
2023/06/17 00:34:44;;;;;;;3.40;2.60;;;17.00;99.90;;;;;;5016659;28;20053;-31
2023/06/17 00:37:09;;;;;;;5.15;2.83;;;17.00;99.90;;;;;;5016519;28;20504;-34
2023/06/17 00:39:35;;;;;;;4.10;3.42;;;17.00;99.90;;;;;;5016479;28;20101;-34
2023/06/17 00:42:01;;;;;;;6.78;3.35;;;17.00;99.90;;;;;;5002789;28;20105;-33
2023/06/17 00:44:27;;;;;;;4.63;3.80;;;17.00;99.90;;;;;;5005087;28;20025;-33
2023/06/17 00:46:54;;;;;;;4.38;3.40;;;17.00;99.90;;;;;;5015991;28;20087;-33
2023/06/17 00:49:36;;;;;;;6.38;3.78;;;16.90;99.90;;;;;;5024145;28;20026;-34
2023/06/17 00:52:07;;;;;;;5.93;3.83;;;16.80;99.90;;;;;;5011701;28;20175;-36
2023/06/17 00:54:36;;;;;;;5.88;3.40;;;16.80;99.90;;;;;;5012790;28;20061;-31
2023/06/17 00:57:09;;;;;;;3.42;3.10;;;16.80;99.90;;;;;;5023695;28;20022;-34
2023/06/17 00:59:38;;;;;;;4.00;2.83;;;16.70;99.90;;;;;;5033399;28;20037;-31
2023/06/17 01:02:10;;;;;;;4.15;3.63;;;16.80;99.90;;;;;;5030028;28;20160;-39
2023/06/17 01:04:42;;;;;;;3.63;3.17;;;16.70;99.90;;;;;;5035376;28;20033;-34
2023/06/17 01:07:57;;;;;;;7.45;3.10;;;16.70;99.90;;;;;;5035292;28;20453;-31
2023/06/17 01:11:13;;;;;;;3.38;2.58;;;16.70;99.90;;;;;;5029352;28;20033;-36
2023/06/17 01:13:42;;;;;;;5.03;3.10;;;16.60;99.90;;;;;;5023445;28;20037;-35
2023/06/17 01:16:09;;;;;;;3.65;3.15;;;16.50;99.90;;;;;;5032284;28;20034;-37
2023/06/17 01:18:36;;;;;;;4.75;3.25;;;16.50;99.90;;;;;;5009022;28;20084;-41
2023/06/17 01:21:03;;;;;;;5.10;3.55;;;16.50;99.90;;;;;;5015643;28;20022;-37
2023/06/17 01:23:37;;;;;;;4.55;2.67;;;16.50;99.90;;;;;;5015544;28;20100;-40
2023/06/17 01:26:04;;;;;;;3.20;2.90;;;16.50;99.90;;;;;;5015894;28;20021;-34
2023/06/17 01:28:30;;;;;;;4.35;3.00;;;16.50;99.90;;;;;;5013565;28;20038;-40
2023/06/17 01:30:57;;;;;;;5.47;3.60;;;16.50;99.90;;;;;;5033969;28;20112;-32
2023/06/17 01:33:24;;;;;;;11.32;3.97;;;16.50;99.90;;;;;;5032079;28;20025;-33
2023/06/17 01:35:58;;;;;;;5.63;3.50;;;16.50;99.90;;;;;;5029880;28;20038;-35
2023/06/17 01:38:43;;;;;;;4.70;3.10;;;16.40;99.90;;;;;;5031743;28;20037;-34
2023/06/17 01:41:14;;;;;;;4.43;3.50;;;16.40;99.90;;;;;;5022356;28;20033;-31
2023/06/17 01:43:41;;;;;;;6.38;3.15;;;16.40;99.90;;;;;;5022213;28;20040;-34
2023/06/17 01:46:07;;;;;;;5.60;3.50;;;16.30;99.90;;;;;;5018234;28;20065;-31
2023/06/17 01:48:33;;;;;;;6.22;3.90;;;16.30;99.90;;;;;;5028533;28;20036;-34
2023/06/17 01:50:58;;;;;;;5.03;3.63;;;16.30;99.90;;;;;;5032897;28;20470;-30
2023/06/17 01:53:27;;;;;;;5.07;3.25;;;16.30;99.90;;;;;;5030411;28;20022;-35
2023/06/17 01:55:53;;;;;;;7.63;3.95;;;16.30;99.90;;;;;;5015102;28;20045;-32
2023/06/17 01:58:18;;;;;;;5.68;3.60;;;16.20;99.90;;;;;;5014818;28;20026;-33
2023/06/17 02:00:44;;;;;;;5.32;4.00;;;16.20;99.90;;;;;;5015223;28;20108;-37
2023/06/17 02:03:10;;;;;;;4.63;3.75;;;16.20;99.90;;;;;;5034947;28;20036;-33
2023/06/17 02:05:36;;;;;;;6.95;3.55;;;16.10;99.90;;;;;;5034547;28;20033;-31
2023/06/17 02:08:04;;;;;;;4.57;3.08;;;16.10;99.90;;;;;;5033295;28;20033;-32
2023/06/17 02:10:30;;;;;;;6.40;3.60;;;16.00;99.90;;;;;;5034891;28;20021;-37
2023/06/17 02:12:55;;;;;;;4.78;3.40;;;16.00;99.90;;;;;;5033414;28;20075;-32
2023/06/17 02:15:21;;;;;;;8.02;3.72;;;16.00;99.90;;;;;;5027573;28;20026;-36
2023/06/17 02:17:47;;;;;;;8.13;3.50;;;16.00;99.90;;;;;;5034455;28;20036;-33
2023/06/17 02:20:12;;;;;;;5.72;3.50;;;16.00;99.90;;;;;;5032908;28;20055;-33
2023/06/17 02:22:38;;;;;;;7.20;3.97;;;16.00;99.90;;;;;;5034387;28;20025;-33
2023/06/17 02:25:05;;;;;;;8.80;4.93;;;16.00;99.90;;;;;;5034282;28;20083;-34
2023/06/17 02:27:31;;;;;;;5.70;3.90;;;16.00;99.90;;;;;;5026460;28;20030;-36
2023/06/17 02:29:56;;;;;;;6.90;4.13;;;16.00;99.90;;;;;;5025886;28;20038;-34
2023/06/17 02:32:23;;;;;;;6.85;4.15;;;16.00;99.90;;;;;;5034135;28;20064;-35
2023/06/17 02:34:49;;;;;;;8.45;4.22;;;15.90;99.90;;;;;;5034060;28;20017;-39
2023/06/17 02:37:15;;;;;;;8.70;3.97;;;15.90;99.90;;;;;;5027738;28;20017;-31
2023/06/17 02:39:41;;;;;;;7.05;4.45;;;15.90;99.90;;;;;;5024625;28;20385;-34
2023/06/17 02:42:08;;;;;;;5.30;3.70;;;16.00;99.90;;;;;;5033960;28;20101;-37
2023/06/17 02:44:35;;;;;;;6.72;4.57;;;16.00;99.90;;;;;;5027871;28;20026;-32
2023/06/17 02:47:02;;;;;;;5.95;4.60;;;16.00;99.90;;;;;;5012030;28;20053;-32
2023/06/17 02:49:27;;;;;;;6.47;4.70;;;16.00;99.90;;;;;;5013974;28;20034;-36
2023/06/17 02:51:53;;;;;;;7.88;4.78;;;16.00;99.90;;;;;;5030818;28;20037;-34
2023/06/17 02:54:19;;;;;;;8.75;5.10;;;15.90;99.90;;;;;;5033706;28;20481;-35
2023/06/17 02:56:44;;;;;;;8.15;5.30;;;15.90;99.90;;;;;;5014529;28;20038;-37
2023/06/17 02:59:12;;;;;;;8.43;5.03;;;15.90;99.90;;;;;;5014964;28;20037;-34
2023/06/17 03:01:42;;;;;;;7.85;5.50;;;15.80;99.90;;;;;;5027868;28;20061;-35
2023/06/17 03:04:12;;;;;;;8.55;5.63;;;15.80;99.90;;;;;;5033850;28;20017;-36
2023/06/17 03:06:40;;;;;;;8.93;5.28;;;15.80;99.90;;;;;;5031992;28;20505;-36
2023/06/17 03:09:10;;;;;;;9.07;6.10;;;15.80;99.90;;;;;;5031720;28;20032;-33
2023/06/17 03:11:36;;;;;;;13.00;5.75;;;15.80;99.90;;;;;;4993971;28;20061;-32
2023/06/17 03:14:03;;;;;;;7.28;4.93;;;15.70;99.90;;;;;;4994029;28;20018;-35
2023/06/17 03:16:31;;;;;;;12.77;5.80;;;15.70;99.90;;;;;;5029890;28;20482;-37
2023/06/17 03:18:58;;;;;;;9.70;5.70;;;15.70;99.90;;;;;;5021622;28;20116;-35
2023/06/17 03:21:25;;;;;;;7.53;5.53;;;15.60;99.90;;;;;;5012179;28;20026;-33
2023/06/17 03:23:51;;;;;;;8.43;5.65;;;15.60;99.90;;;;;;5013441;28;20501;-37
2023/06/17 03:26:17;;;;;;;8.68;5.20;;;15.60;99.90;;;;;;5013422;28;20537;-36
2023/06/17 03:28:43;;;;;;;10.18;6.68;;;15.60;99.90;;;;;;5013416;28;20467;-33
2023/06/17 03:31:10;;;;;;;8.23;5.78;;;15.50;99.90;;;;;;5018532;28;20030;-36
2023/06/17 03:33:36;;;;;;;6.78;5.60;;;15.60;99.90;;;;;;5013606;28;20032;-35
2023/06/17 03:36:01;;;;;;;9.48;5.90;;;15.50;99.90;;;;;;5013265;28;20026;-36
2023/06/17 03:38:27;;;;;;;7.85;5.70;;;15.50;99.90;;;;;;5021024;28;20037;-35
2023/06/17 03:40:53;;;;;;;8.10;5.25;;;15.50;99.90;;;;;;5027917;28;20029;-31
2023/06/17 03:43:18;;;;;;;11.30;6.32;;;15.50;99.90;;;;;;5011185;28;20022;-34
2023/06/17 03:45:44;;;;;;;9.57;6.90;;;15.50;99.90;;;;;;5013948;28;20018;-34
2023/06/17 03:48:10;;;;;;;8.82;6.18;;;15.50;99.90;;;;;;5012962;28;20026;-34
2023/06/17 03:50:35;;;;;;;9.75;6.32;;;15.60;99.90;;;;;;5011067;28;20029;-38
2023/06/17 03:53:01;;;;;;;13.35;6.07;;;15.60;99.90;;;;;;5011971;28;20034;-38
2023/06/17 03:55:26;;;;;;;11.48;4.90;;;15.60;99.90;;;;;;5011977;28;20497;-39
2023/06/17 03:57:52;;;;;;;12.77;5.53;;;15.60;99.90;;;;;;5010946;28;20056;-39
2023/06/17 04:00:19;;;;;;;8.38;5.78;;;15.60;99.90;;;;;;5013212;28;20469;-39
2023/06/17 04:02:45;;;;;;;9.05;6.18;;;15.60;99.90;;;;;;5013281;28;20026;-39
2023/06/17 04:05:14;;;;;;;8.95;5.88;;;15.70;99.90;;;;;;5012967;28;20018;-40
2023/06/17 04:07:40;;;;;;;11.82;6.38;;;15.60;99.90;;;;;;5012930;28;20042;-39
2023/06/17 04:10:10;;;;;;;8.65;6.03;;;15.70;99.90;;;;;;5013217;28;20014;-38
2023/06/17 04:12:39;;;;;;;12.13;7.22;;;15.70;99.90;;;;;;5013228;28;20041;-39
2023/06/17 04:15:07;;;;;;;14.32;7.45;;;15.70;99.90;;;;;;5021418;28;20087;-41
2023/06/17 04:17:33;;;;;;;12.50;7.68;;;15.70;99.90;;;;;;5013131;28;20033;-40
2023/06/17 04:20:05;;;;;;;12.52;7.93;;;15.80;99.90;;;;;;5013071;28;20466;-39
2023/06/17 04:22:30;;;;;;;13.48;7.97;;;15.80;99.90;;;;;;5012679;28;20100;-39
2023/06/17 04:24:57;;;;;;;13.63;7.50;;;15.80;99.90;;;;;;5011468;28;20061;-39
2023/06/17 04:27:23;;;;;;;16.77;8.82;;;15.90;99.90;;;;;;5012763;28;20022;-38
2023/06/17 04:29:49;;;;;;;13.38;7.43;;;15.90;99.90;;;;;;5017463;28;20112;-71
2023/06/17 04:32:15;;;;;;;13.65;7.53;;;15.90;99.90;;;;;;5032449;28;20450;-39
2023/06/17 04:34:47;;;;;;;11.52;7.20;;;15.90;99.90;;;;;;5032411;28;20100;-39
2023/06/17 04:37:14;;;;;;;14.82;6.43;;;15.90;99.90;;;;;;5032461;28;20540;-39
2023/06/17 04:39:42;;;;;;;18.30;7.60;;;15.90;99.90;;;;;;5020024;28;20018;-38
2023/06/17 04:42:16;;;;;;;16.23;8.40;;;16.00;99.90;;;;;;5012601;28;20280;-39
2023/06/17 04:44:42;;;;;;;12.68;7.85;;;16.00;99.90;;;;;;5014510;28;20482;-38
2023/06/17 04:47:10;;;;;;;15.90;9.07;;;16.00;99.90;;;;;;5032351;28;20048;-38
2023/06/17 04:49:41;;;;;;;14.23;8.43;;;16.00;99.90;;;;;;5032351;28;20076;-39
2023/06/17 04:52:10;;;;;;;18.27;8.73;;;16.10;99.90;;;;;;5027918;28;20032;-39
2023/06/17 04:54:40;;;;;;;15.20;8.50;;;16.10;99.90;;;;;;5028165;28;20116;-44
2023/06/17 04:57:06;;;;;;;12.30;7.82;;;16.10;99.90;;;;;;5016461;28;20029;-38
2023/06/17 04:59:32;;;;;;;19.80;8.95;;;16.10;99.90;;;;;;5010567;28;20470;-38
2023/06/17 05:01:58;;;;;;;13.50;7.70;;;16.20;99.90;;;;;;5015918;28;20034;-38
2023/06/17 05:04:23;;;;;;;16.45;8.38;;;16.30;99.90;;;;;;5011792;28;20419;-40
2023/06/17 05:06:49;;;;;;;15.18;9.30;;;16.30;99.90;;;;;;5011310;28;20044;-39
2023/06/17 05:09:15;;;;;;;18.23;8.70;;;16.40;99.90;;;;;;5012709;28;20025;-40
2023/06/17 05:11:42;;;;;;;17.98;9.20;;;16.40;99.90;;;;;;5014700;28;20022;-36
2023/06/17 05:14:08;;;;;;;14.50;8.90;;;16.50;99.90;;;;;;5015726;28;20054;-38
2023/06/17 05:16:34;;;;;;;16.83;9.65;;;16.60;99.90;;;;;;5025284;28;20044;-41
2023/06/17 05:19:00;;;;;;;16.48;10.45;;;16.60;99.90;;;;;;5017578;28;20053;-35
2023/06/17 05:21:26;;;;;;;19.38;11.05;;;16.80;99.90;;;;;;4996688;28;20105;-39
2023/06/17 05:23:52;;;;;;;13.65;9.45;;;16.80;99.90;;;;;;4996143;28;20026;-37
2023/06/17 05:26:17;;;;;;;18.95;10.25;;;16.90;99.90;;;;;;4996121;28;20054;-38
2023/06/17 05:28:43;;;;;;;15.77;9.00;;;17.00;99.90;;;;;;4996104;28;20061;-39
2023/06/17 05:31:10;;;;;;;15.75;9.73;;;17.10;99.90;;;;;;5009679;28;20029;-39
2023/06/17 05:33:36;;;;;;;13.40;9.02;;;17.10;99.90;;;;;;5015414;28;20475;-43
2023/06/17 05:36:01;;;;;;;14.15;8.77;;;17.20;99.90;;;;;;5015751;28;20076;-44
2023/06/17 05:38:27;;;;;;;16.30;8.82;;;17.30;99.90;;;;;;5015440;28;20506;-42
2023/06/17 05:40:53;;;;;;;14.35;8.55;;;17.30;99.90;;;;;;5015247;28;20553;-39
2023/06/17 05:43:19;;;;;;;11.90;8.02;;;17.40;99.90;;;;;;5018528;28;20014;-39
2023/06/17 05:45:45;;;;;;;11.68;7.18;;;17.50;99.90;;;;;;5016925;28;20517;-39
2023/06/17 05:48:10;;;;;;;13.25;6.63;;;17.60;99.90;;;;;;5018201;28;20029;-38
2023/06/17 05:50:36;;;;;;;11.25;6.50;;;17.60;99.90;;;;;;5015146;28;20034;-40
2023/06/17 05:53:02;;;;;;;7.78;4.72;;;17.70;99.90;;;;;;5015022;28;20087;-39
2023/06/17 05:55:28;;;;;;;7.13;4.78;;;17.70;99.90;;;;;;5015185;28;20496;-38
2023/06/17 05:57:54;;;;;;;9.07;5.53;;;17.70;99.90;;;;;;5014211;28;20390;-39
2023/06/17 06:00:20;;;;;;;7.25;4.93;;;17.90;99.90;;;;;;5015065;28;20389;-39
2023/06/17 06:02:49;;;;;;;7.90;4.53;;;18.10;99.90;;;;;;5016371;28;20110;-38
2023/06/17 06:05:15;;;;;;;10.90;6.35;;;18.20;99.90;;;;;;5014877;28;20022;-39
2023/06/17 06:07:43;;;;;;;5.90;4.47;;;18.30;99.90;;;;;;5028236;28;20083;-38
2023/06/17 06:10:10;;;;;;;6.75;4.05;;;18.50;99.90;;;;;;5033429;28;20030;-38
2023/06/17 06:12:36;;;;;;;4.97;3.95;;;18.90;99.90;;;;;;5034619;28;20025;-38
2023/06/17 06:15:02;;;;;;;6.97;3.50;;;20.00;98.20;;;;;;5029215;28;20026;-39
2023/06/17 06:17:28;;;;;;;4.65;3.67;;;21.50;95.50;;;;;;5008284;28;20501;-39
2023/06/17 06:19:54;;;;;;;6.85;4.07;;;21.80;94.70;;;;;;5013105;28;20018;-38
2023/06/17 06:22:19;;;;;;;6.03;4.28;;;21.80;94.70;;;;;;5027701;28;20021;-57
2023/06/17 06:24:45;;;;;;;4.35;3.53;;;21.70;94.40;;;;;;5018663;28;20135;-38
2023/06/17 06:27:11;;;;;;;3.50;3.00;;;21.60;94.10;;;;;;5030866;28;20435;-38
2023/06/17 06:29:37;;;;;;;7.45;4.40;;;21.80;94.20;;;;;;5014546;28;20382;-52
2023/06/17 06:32:03;;;;;;;4.80;3.28;;;22.60;93.50;;;;;;5028552;28;20025;-39
2023/06/17 06:34:29;;;;;;;3.92;3.33;;;23.20;93.00;;;;;;5021909;28;20021;-39
2023/06/17 06:36:58;;;;;;;3.15;2.85;;;23.10;92.70;;;;;;5029837;28;20132;-39
2023/06/17 06:39:24;;;;;;;3.28;2.92;;;22.90;92.80;;;;;;5015656;28;20036;-38
2023/06/17 06:41:50;;;;;;;4.45;3.25;;;22.80;92.40;;;;;;5024637;28;20543;-39
2023/06/17 06:44:16;;;;;;;8.35;3.45;;;22.60;92.50;;;;;;5023915;28;20029;-39
2023/06/17 06:46:42;;;;;;;4.43;3.08;;;22.40;92.50;;;;;;5029949;28;20025;-37
2023/06/17 06:49:08;;;;;;;5.15;2.72;;;22.90;92.10;;;;;;5033897;28;20014;-38
2023/06/17 06:51:33;;;;;;;3.13;2.80;;;23.10;91.50;;;;;;5031467;28;20032;-39
2023/06/17 06:53:59;;;;;;;3.13;2.63;;;23.00;91.50;;;;;;5024184;28;20136;-40
2023/06/17 06:56:25;;;;;;;3.40;2.72;;;22.90;91.60;;;;;;5014335;28;20033;-40
2023/06/17 06:58:51;;;;;;;3.05;2.47;;;22.90;91.90;;;;;;5013985;28;20026;-39
2023/06/17 07:01:17;;;;;;;2.70;2.50;;;22.60;92.40;;;;;;5020175;28;20133;-39
2023/06/17 07:03:42;;;;;;;2.95;2.65;;;22.50;92.60;;;;;;5022329;28;20506;-57
2023/06/17 07:06:08;;;;;;;3.65;2.53;;;22.60;92.20;;;;;;5013946;28;20108;-40
2023/06/17 07:08:34;;;;;;;2.92;2.70;;;23.20;92.20;;;;;;5013840;28;20025;-39
2023/06/17 07:11:00;;;;;;;3.35;2.88;;;24.40;91.40;;;;;;5013790;28;20026;-40
2023/06/17 07:13:25;;;;;;;13.45;2.83;;;25.90;90.60;;;;;;5013615;28;20025;-38
2023/06/17 07:15:51;;;;;;;2.22;2.03;;;27.20;87.90;;;;;;5025566;28;20128;-39
2023/06/17 07:18:17;;;;;;;3.92;2.53;;;28.50;86.90;;;;;;5018186;28;20029;-40
2023/06/17 07:20:42;;;;;;;3.00;2.63;;;29.50;83.20;;;;;;5013541;28;20037;-54
2023/06/17 07:23:08;;;;;;;2.88;2.35;;;29.60;82.40;;;;;;5013511;28;20018;-41
2023/06/17 07:25:34;;;;;;;3.33;2.72;;;29.30;81.50;;;;;;5020134;28;20029;-40
2023/06/17 07:27:59;;;;;;;3.03;2.80;;;28.70;82.20;;;;;;5018644;28;20083;-38
2023/06/17 07:30:29;;;;;;;3.97;2.58;;;28.70;81.90;;;;;;5019925;28;20021;-39
2023/06/17 07:32:55;;;;;;;3.22;2.33;;;28.10;82.50;;;;;;5014275;28;20539;-41
2023/06/17 07:35:21;;;;;;;3.47;2.17;;;28.10;84.60;;;;;;5031833;28;20032;-40
2023/06/17 07:37:47;;;;;;;10.13;2.60;;;28.70;84.20;;;;;;5027311;28;20452;-39
2023/06/17 07:40:13;;;;;;;3.15;2.30;;;29.20;83.30;;;;;;5014077;28;20018;-39
2023/06/17 07:42:38;;;;;;;3.00;2.42;;;28.80;81.00;;;;;;5008970;28;20018;-41
2023/06/17 07:45:07;;;;;;;4.78;2.42;;;28.20;82.40;;;;;;5010180;28;20474;-61
2023/06/17 07:47:32;;;;;;;8.75;2.40;;;27.90;84.00;;;;;;5012130;28;20174;-39
2023/06/17 07:49:58;;;;;;;2.83;2.45;;;27.70;85.00;;;;;;5012173;28;20588;-39
2023/06/17 07:52:24;;;;;;;7.38;2.67;;;27.20;85.00;;;;;;5012392;28;20040;-39
2023/06/17 07:54:51;;;;;;;3.47;2.42;;;26.80;85.30;;;;;;5011612;28;20014;-39
2023/06/17 07:57:17;;;;;;;3.03;2.28;;;26.30;85.40;;;;;;5008248;28;20178;-40
2023/06/17 07:59:43;;;;;;;2.80;2.30;;;25.90;85.60;;;;;;5011032;28;20017;-40
2023/06/17 08:02:09;;;;;;;3.20;2.90;;;25.40;86.30;;;;;;5017674;28;20406;-39
2023/06/17 08:04:34;;;;;;;7.57;2.00;;;25.40;85.80;;;;;;5009870;28;20022;-40
2023/06/17 08:07:01;;;;;;;3.30;2.55;;;25.70;86.30;;;;;;5010891;28;20040;-39
2023/06/17 08:09:26;;;;;;;4.20;2.75;;;25.50;86.10;;;;;;5012502;28;20042;-40
2023/06/17 08:11:52;;;;;;;4.50;2.17;;;25.80;84.60;;;;;;5011240;28;20104;-38
2023/06/17 08:14:18;;;;;;;7.30;2.42;;;25.70;85.00;;;;;;5011954;28;20406;-43
2023/06/17 08:16:44;;;;;;;2.70;2.50;;;25.80;85.00;;;;;;5022146;28;20040;-40
2023/06/17 08:19:10;;;;;;;3.45;2.60;;;26.20;85.30;;;;;;5017089;28;20053;-39
2023/06/17 08:21:37;;;;;;;3.53;2.30;;;26.20;85.10;;;;;;5011587;28;20038;-40
2023/06/17 08:24:22;;;;;;;2.60;2.40;;;26.30;83.60;;;;;;5011789;28;20030;-44
2023/06/17 08:26:49;;;;;;;3.05;2.75;;;26.10;84.20;;;;;;5012307;28;20284;-42
2023/06/17 08:29:15;;;;;;;3.92;2.50;;;26.60;84.00;;;;;;5012364;28;20084;-41
2023/06/17 08:31:45;;;;;;;2.95;2.28;;;26.90;84.00;;;;;;5012536;28;20026;-49
2023/06/17 08:34:12;;;;;;;2.92;2.60;;;27.30;84.40;;;;;;5010170;28;20101;-39
2023/06/17 08:36:40;;;;;;;2.95;2.20;;;26.90;82.90;;;;;;5006599;28;20025;-42
2023/06/17 08:39:06;;;;;;;2.63;2.35;;;27.30;82.40;;;;;;5012389;28;20061;-37
2023/06/17 08:41:39;;;;;;;3.35;2.22;;;27.40;81.50;;;;;;5008377;28;20546;-40
2023/06/17 08:44:06;;;;;;;5.10;3.20;;;27.00;82.20;;;;;;5007861;28;20029;-40
2023/06/17 08:46:33;;;;;;;;;;;26.50;83.30;;;;;;5014891;28;20028;-42
2023/06/17 08:48:59;;;;;;;3.92;2.65;;;26.50;83.90;;;;;;5015567;28;20289;-43
2023/06/17 08:51:25;;;;;;;4.78;2.28;;;27.10;82.70;;;;;;5016231;28;20057;-41
2023/06/17 08:53:52;;;;;;;12.27;2.60;;;27.90;81.40;;;;;;5014071;28;20529;-41
2023/06/17 08:56:18;;;;;;;4.93;2.70;;;28.00;81.60;;;;;;5009294;28;20518;-42
2023/06/17 08:58:44;;;;;;;3.90;2.13;;;27.90;82.10;;;;;;5028039;28;20032;-40
2023/06/17 09:01:12;;;;;;;2.60;2.40;;;27.80;81.30;;;;;;5017294;28;20104;-46
2023/06/17 09:03:39;;;;;;;7.78;2.40;;;28.00;81.40;;;;;;5025673;28;20029;-41
2023/06/17 09:06:28;;;;;;;11.32;3.05;;;28.70;81.60;;;;;;5015838;28;20052;-40
2023/06/17 09:08:55;;;;;;;5.22;2.33;;;28.70;81.80;;;;;;5014973;28;20022;-42
2023/06/17 09:11:22;;;;;;;7.70;2.90;;;28.10;81.30;;;;;;5015192;28;20108;-41
2023/06/17 09:13:53;;;;;;;3.30;2.95;;;27.40;81.90;;;;;;5012558;28;20033;-42
2023/06/17 09:16:30;;;;;;;4.18;3.13;;;26.60;83.90;;;;;;5025664;28;20036;-41
2023/06/17 09:18:57;;;;;;;3.88;3.38;;;26.10;83.90;;;;;;5016137;28;20360;-40
2023/06/17 09:21:24;;;;;;;;;;;26.20;84.30;;;;;;5016455;28;20026;-41
2023/06/17 09:24:01;;;;;;;4.57;2.40;;;26.30;83.90;;;;;;5015732;28;20358;-41
2023/06/17 09:26:32;;;;;;;2.30;2.10;;;26.60;84.20;;;;;;5013612;28;20018;-38
2023/06/17 09:29:01;;;;;;;6.28;2.60;;;26.40;83.90;;;;;;5022564;28;20558;-39
2023/06/17 09:31:28;;;;;;;11.18;2.50;;;26.30;83.10;;;;;;5015367;28;20017;-40
2023/06/17 09:33:54;;;;;;;3.58;2.50;;;26.20;84.00;;;;;;5014642;28;20027;-39
2023/06/17 09:36:21;;;;;;;12.15;2.47;;;26.10;84.70;;;;;;5008198;28;20523;-67
2023/06/17 09:38:47;;;;;;;2.72;2.05;;;25.70;82.20;;;;;;5015380;28;20033;-42
2023/06/17 09:41:14;;;;;;;9.73;2.70;;;25.50;82.40;;;;;;5015659;28;20033;-39
2023/06/17 09:43:41;;;;;;;6.55;2.38;;;25.30;82.60;;;;;;5011316;28;20026;-40
2023/06/17 09:46:09;;;;;;;3.00;2.70;;;25.20;83.10;;;;;;5012968;28;20022;-66
2023/06/17 09:48:38;;;;;;;4.25;2.20;;;25.40;83.50;;;;;;5009456;28;20033;-40
2023/06/17 09:51:09;;;;;;;3.72;2.50;;;25.70;82.00;;;;;;5015385;28;20034;-39
2023/06/17 09:53:36;;;;;;;4.78;2.38;;;25.60;85.00;;;;;;5015096;28;20104;-41
2023/06/17 09:56:02;;;;;;;7.43;2.80;;;25.50;85.80;;;;;;5011763;28;20041;-40
2023/06/17 09:58:32;;;;;;;3.00;2.22;;;25.50;83.30;;;;;;5028938;28;20037;-40
2023/06/17 10:01:00;;;;;;;2.88;2.53;;;25.40;84.20;;;;;;5014926;28;20041;-42
2023/06/17 10:03:29;;;;;;;7.05;2.58;;;25.80;84.90;;;;;;5008498;28;20055;-41
2023/06/17 10:06:08;;;;;;;2.72;2.30;;;25.90;85.00;;;;;;5014871;28;20033;-40
2023/06/17 10:08:40;;;;;;;2.40;2.05;;;26.10;84.40;;;;;;5014616;28;20024;-38
2023/06/17 10:11:06;;;;;;;2.92;2.45;;;26.60;85.40;;;;;;5030012;28;20034;-41
2023/06/17 10:13:38;;;;;;;4.68;2.88;;;27.10;84.60;;;;;;5013312;28;20073;-44
2023/06/17 10:16:08;;;;;;;3.60;2.22;;;27.20;83.60;;;;;;5034653;28;20033;-42
2023/06/17 10:18:36;;;;;;;4.68;2.42;;;27.30;83.10;;;;;;5017933;28;20029;-41
2023/06/17 10:21:05;;;;;;;2.72;2.28;;;27.00;83.30;;;;;;5014715;28;20096;-41
2023/06/17 10:23:32;;;;;;;2.97;2.60;;;26.70;83.30;;;;;;5014627;28;20072;-41
2023/06/17 10:25:58;;;;;;;3.08;2.20;;;26.50;83.50;;;;;;5024050;28;20041;-39
2023/06/17 10:28:24;;;;;;;2.05;1.92;;;26.50;83.30;;;;;;5034301;28;20022;-39
2023/06/17 10:30:52;;;;;;;3.15;2.13;;;26.60;83.60;;;;;;5016731;28;20543;-43
2023/06/17 10:33:26;;;;;;;3.40;2.40;;;26.70;83.90;;;;;;5013502;28;20484;-54
2023/06/17 10:36:06;;;;;;;8.43;3.00;;;26.40;83.80;;;;;;5028165;28;20030;-59
2023/06/17 10:38:34;;;;;;;4.10;2.92;;;26.50;83.70;;;;;;5038492;28;20037;-39
2023/06/17 10:40:59;;;;;;;2.55;2.25;;;26.70;84.40;;;;;;5029469;28;20045;-39
2023/06/17 10:43:25;;;;;;;2.28;2.08;;;26.80;84.20;;;;;;5033846;28;20021;-38
2023/06/17 10:45:56;;;;;;;4.35;2.05;;;26.90;83.60;;;;;;5026511;28;20025;-39
2023/06/17 10:48:29;;;;;;;10.73;2.38;;;26.90;84.20;;;;;;5029250;28;20038;-41
2023/06/17 10:51:02;;;;;;;2.78;2.30;;;26.70;82.70;;;;;;5014688;28;20038;-42
2023/06/17 10:53:32;;;;;;;2.20;2.00;;;26.60;82.00;;;;;;5024359;28;20053;-38
2023/06/17 10:56:01;;;;;;;2.83;2.58;;;26.60;82.50;;;;;;5032275;28;20468;-39
2023/06/17 10:58:47;;;;;;;2.40;2.10;;;26.90;82.80;;;;;;5033742;28;20064;-38
2023/06/17 11:01:13;;;;;;;2.47;2.25;;;27.20;82.80;;;;;;5031538;28;20022;-40
2023/06/17 11:03:40;;;;;;;2.73;2.53;;;27.20;82.40;;;;;;5033820;28;20033;-40
2023/06/17 11:06:08;;;;;;;2.73;2.47;;;26.90;82.50;;;;;;5033460;28;20349;-40
2023/06/17 11:08:36;;;;;;;2.55;2.28;;;26.90;81.70;;;;;;5008477;28;21522;-40
2023/06/17 11:11:16;;;;;;;2.33;2.13;;;26.60;82.60;;;;;;5013598;28;20026;-40
2023/06/17 11:13:44;;;;;;;2.50;1.80;;;26.50;83.20;;;;;;5029067;28;20088;-43
2023/06/17 11:18:54;;;;;;;3.88;2.70;;;26.50;82.20;;;;;;5014027;28;20048;-41
2023/06/17 11:21:20;;;;;;;2.90;2.50;;;26.30;82.50;;;;;;5013463;28;20475;-40
2023/06/17 11:23:46;;;;;;;3.72;1.95;;;26.20;83.20;;;;;;5013491;28;20093;-39
2023/06/17 11:26:12;;;;;;;4.10;2.10;;;26.20;83.60;;;;;;5012137;28;20076;-40
2023/06/17 11:28:41;;;;;;;5.27;2.43;;;26.40;83.60;;;;;;5023281;28;20022;-42
2023/06/17 11:31:07;;;;;;;2.58;2.33;;;26.60;82.50;;;;;;5031066;28;20033;-40
2023/06/17 11:33:35;;;;;;;2.95;2.28;;;26.70;82.70;;;;;;5033240;28;20437;-39
2023/06/17 11:36:01;;;;;;;;;;;26.80;82.10;;;;;;5033841;28;20099;-41
2023/06/17 11:38:26;;;;;;;2.83;2.63;;;26.80;81.90;;;;;;5032168;28;19905;-45
2023/06/17 11:40:54;;;;;;;3.25;2.28;;;26.80;81.00;;;;;;5033057;28;20037;-60
2023/06/17 11:43:24;;;;;;;;;;;26.90;81.70;;;;;;5032388;28;20093;-41
2023/06/17 11:45:50;;;;;;;4.18;2.50;;;27.00;81.30;;;;;;5012949;28;19905;-40
2023/06/17 11:48:17;;;;;;;3.97;2.60;;;27.00;81.50;;;;;;5012995;28;20091;-38
2023/06/17 11:50:43;;;;;;;5.10;2.42;;;26.70;80.90;;;;;;5013243;28;20033;-39
2023/06/17 11:53:09;;;;;;;3.88;2.95;;;26.70;80.70;;;;;;5013096;28;20029;-39
2023/06/17 11:55:35;;;;;;;4.28;2.28;;;26.90;80.10;;;;;;5009919;28;20025;-40
2023/06/17 11:58:03;;;;;;;3.25;2.58;;;27.30;80.70;;;;;;5009070;28;20075;-40
2023/06/17 12:00:30;;;;;;;3.65;2.55;;;27.50;80.90;;;;;;5012234;28;20534;-40
2023/06/17 12:02:59;;;;;;;2.50;2.30;;;27.60;80.50;;;;;;5013071;28;20056;-39
2023/06/17 12:05:28;;;;;;;4.25;2.33;;;27.50;80.20;;;;;;5012986;28;20030;-41
2023/06/17 12:07:59;;;;;;;4.05;1.95;;;27.70;79.30;;;;;;5012761;28;20046;-38
2023/06/17 12:10:26;;;;;;;2.35;2.15;;;27.40;79.80;;;;;;5013330;28;20494;-41
2023/06/17 12:12:57;;;;;;;5.53;2.40;;;27.50;79.40;;;;;;5013079;28;20033;-42
2023/06/17 12:15:29;;;;;;;4.20;2.40;;;27.30;78.90;;;;;;5013596;28;20305;-38
2023/06/17 12:17:56;;;;;;;2.90;1.70;;;27.40;80.10;;;;;;5021127;28;20069;-40
2023/06/17 12:20:22;;;;;;;5.38;2.53;;;27.50;79.40;;;;;;5016534;28;20022;-40
2023/06/17 12:22:52;;;;;;;3.00;2.40;;;27.40;78.80;;;;;;5016902;28;20025;-40
2023/06/17 12:25:19;;;;;;;2.53;2.20;;;27.40;78.10;;;;;;5017191;28;20522;-39
2023/06/17 12:27:44;;;;;;;4.28;2.08;;;27.40;78.70;;;;;;5014391;28;20018;-40
2023/06/17 12:30:11;;;;;;;4.10;2.28;;;27.40;77.90;;;;;;5022475;28;20032;-42
2023/06/17 12:32:39;;;;;;;2.08;1.88;;;27.50;77.80;;;;;;5036413;28;20462;-41
2023/06/17 12:35:05;;;;;;;1.88;1.77;;;27.80;76.70;;;;;;5027099;28;20046;-40
2023/06/17 12:37:33;;;;;;;2.15;2.03;;;28.20;77.60;;;;;;5014674;28;20026;-43
2023/06/17 12:40:03;;;;;;;2.45;2.15;;;28.10;76.70;;;;;;5020457;28;20139;-42
2023/06/17 12:42:29;;;;;;;2.78;1.70;;;28.20;76.00;;;;;;5009685;28;20026;-39
2023/06/17 12:44:55;;;;;;;5.28;2.50;;;28.30;77.00;;;;;;5014765;28;20119;-38
2023/06/17 12:47:23;;;;;;;7.63;2.50;;;28.20;76.30;;;;;;5015361;28;20029;-40
2023/06/17 12:49:49;;;;;;;1.88;1.77;;;28.00;77.00;;;;;;5015541;28;20757;-40